Airfield :
LOGIN :

Register | Disclaimer

   EN    FR    IT 

 










Legend :    VFR   Marginal VFR   IFR   Intensive IFR   Very Intensive IFR
Visi :
Ceiling :
>= 8 km
>= 3000ft
5 to 8 km
1000 to 3000 ft
1500m to 5 km
500 to 1000 ft
800 to 1500m
200 to 500 ft
< 800m
< 200 ft
Symbols :   Thunderstorms  Fog  Heavy snow  Heavy precipitations  Wind > 20 kt
SIGMETs :     Misc.  Thunderstorms  Icing  Turbulence  Mountain Waves  Volcanic Ashes






- Airport Elevation : 257 ft
- IATA code : MAN


EGCC - Manchester

CURRENT METAR :
  • 290620Z AUTO 02010KT 9999 NCD 03/M03 Q1042 NOSIG

EXPIRED METARs :
  • 290550Z AUTO 03014KT 9999 NCD 03/M03 Q1042 NOSIG
  • 290520Z AUTO 02013KT 9999 SCT041 BKN048 03/M04 Q1041 NOSIG
  • 290450Z AUTO 02011KT 9999 BKN049 03/M04 Q1041
  • 290420Z AUTO 03015KT 9999 NCD 03/M04 Q1041 NOSIG
  • 290350Z AUTO 02014KT 9999 NCD 03/M05 Q1041 NOSIG

TAF TAF EGCC
Valid from the 29 at 06:00 until the 30 at 12:00 UTC


290500Z 2906/3012 02012KT 9999 SCT035
PROB30
TEMPO 2909/2915 04015G25KT
BECMG 2921/2924 32005KT
ATIS : +44 161 499 2324



MET'MAP, your aeronautical weather chart ! - Copyright ORBIFLY December 2007 - Disclaimer

ORBIFLY MET'MAP TEAM :

Programming & Development : Alexandra Zaïnal
Concept & original design : Baudouin d'Aumeries
Assistance for programming : Marc-Olivier Méhu
Technical & hardware support : Manuel Goepfert

Contact : metmap@orbifly.com




SOURCES & CREDITS :

   NOAA